createdAt,value
2022-11-21T00:02:37.150Z,3.19
2022-11-21T00:05:41.641Z,3.18
2022-11-21T00:08:44.686Z,3.13
2022-11-21T00:11:46.842Z,3.11
2022-11-21T00:14:51.016Z,3.11
2022-11-21T00:17:53.741Z,3.14
2022-11-21T00:20:55.868Z,3.19
2022-11-21T00:23:58.312Z,3.35
2022-11-21T00:27:00.469Z,3.23
2022-11-21T00:30:02.907Z,3.19
2022-11-21T00:33:05.227Z,3.12
2022-11-21T00:36:09.462Z,3.11
2022-11-21T00:39:11.939Z,3.14
2022-11-21T00:42:13.804Z,3.17
2022-11-21T00:45:21.167Z,3.18
2022-11-21T00:48:25.666Z,3.15
2022-11-21T00:51:27.864Z,3.14
2022-11-21T00:54:29.824Z,3.20
2022-11-21T00:57:32.418Z,3.26
2022-11-21T01:00:34.274Z,3.31
2022-11-21T01:03:36.860Z,3.36
2022-11-21T01:06:38.980Z,3.41
2022-11-21T01:09:43.072Z,3.34
2022-11-21T01:12:45.587Z,3.30
2022-11-21T01:15:47.489Z,3.29
2022-11-21T01:18:49.322Z,3.33
2022-11-21T01:21:51.249Z,3.35
2022-11-21T01:24:53.085Z,3.35
2022-11-21T01:27:55.695Z,3.36
2022-11-21T01:31:06.740Z,3.31
2022-11-21T01:34:08.567Z,3.31
2022-11-21T01:37:10.412Z,3.46
2022-11-21T01:40:13.670Z,3.41
2022-11-21T01:43:16.819Z,3.41
2022-11-21T01:46:23.398Z,3.42
2022-11-21T01:49:31.663Z,3.43
2022-11-21T01:52:38.093Z,3.40
2022-11-21T01:55:40.612Z,3.41
2022-11-21T01:58:43.570Z,3.37
2022-11-21T02:01:49.967Z,3.40
2022-11-21T02:04:52.982Z,3.35
2022-11-21T02:07:58.692Z,3.35
2022-11-21T02:11:17.632Z,3.45
2022-11-21T02:14:19.632Z,3.41
2022-11-21T02:17:21.370Z,3.46
2022-11-21T02:20:25.092Z,3.47
2022-11-21T02:23:42.840Z,3.50
2022-11-21T02:26:44.919Z,3.47
2022-11-21T02:29:46.756Z,3.44
2022-11-21T02:32:48.739Z,3.40
2022-11-21T02:35:58.183Z,3.39
2022-11-21T02:38:59.907Z,3.26
2022-11-21T02:42:34.415Z,3.39
2022-11-21T02:45:39.907Z,3.44
2022-11-21T02:48:41.732Z,3.51
2022-11-21T02:51:43.867Z,3.55
2022-11-21T02:54:45.553Z,3.46
2022-11-21T02:57:47.466Z,3.19
2022-11-21T03:00:49.414Z,3.35
2022-11-21T03:03:51.176Z,3.34
2022-11-21T03:06:52.952Z,3.42
2022-11-21T03:09:54.629Z,3.47
2022-11-21T03:13:01.392Z,3.45
2022-11-21T03:16:03.370Z,3.51
2022-11-21T03:19:05.032Z,3.52
2022-11-21T03:22:06.835Z,3.56
2022-11-21T03:25:08.930Z,3.52
2022-11-21T03:28:10.723Z,3.50
2022-11-21T03:31:12.502Z,3.59
2022-11-21T03:34:14.224Z,3.50
2022-11-21T03:37:17.184Z,3.41
2022-11-21T03:40:18.967Z,3.43
2022-11-21T03:43:20.759Z,3.49
2022-11-21T03:46:22.716Z,3.52
2022-11-21T03:49:24.393Z,3.42
2022-11-21T03:52:26.184Z,3.39
2022-11-21T03:55:27.902Z,3.49
2022-11-21T03:58:29.727Z,3.39
2022-11-21T04:01:36.445Z,3.44
2022-11-21T04:04:38.688Z,3.31
2022-11-21T04:07:40.456Z,3.28
2022-11-21T04:10:52.764Z,3.22
2022-11-21T04:13:54.472Z,3.31
2022-11-21T04:16:56.190Z,3.29
2022-11-21T04:19:57.979Z,3.22
2022-11-21T04:22:59.792Z,3.23
2022-11-21T04:26:01.757Z,3.22
2022-11-21T04:29:03.518Z,3.14
2022-11-21T04:32:05.286Z,3.24
2022-11-21T04:35:07.970Z,3.18
2022-11-21T04:38:10.024Z,3.25
2022-11-21T04:41:11.771Z,3.24
2022-11-21T04:44:13.828Z,3.27
2022-11-21T04:47:15.618Z,3.35
2022-11-21T04:50:18.849Z,3.36
2022-11-21T04:53:20.660Z,3.40
2022-11-21T04:56:22.390Z,3.41
2022-11-21T04:59:24.215Z,3.34
2022-11-21T05:02:26.137Z,3.43
2022-11-21T05:05:27.854Z,3.40
2022-11-21T05:08:29.704Z,3.45
2022-11-21T05:11:50.045Z,3.40
2022-11-21T05:14:51.804Z,3.37
2022-11-21T05:17:53.620Z,3.46
2022-11-21T05:20:55.525Z,3.48
2022-11-21T05:23:57.426Z,3.37
2022-11-21T05:26:59.321Z,3.46
2022-11-21T05:30:01.292Z,3.40
2022-11-21T05:33:03.271Z,3.42
2022-11-21T05:36:05.409Z,3.43
2022-11-21T05:39:07.425Z,3.39
2022-11-21T05:42:09.402Z,3.25
2022-11-21T05:45:11.541Z,3.10
2022-11-21T05:48:13.586Z,3.16
2022-11-21T05:51:16.916Z,3.18
2022-11-21T05:54:18.751Z,3.20
2022-11-21T05:57:20.865Z,3.28
2022-11-21T06:00:22.706Z,3.30
2022-11-21T06:03:30.476Z,3.28
2022-11-21T06:06:32.283Z,3.10
2022-11-21T06:09:34.220Z,3.08
2022-11-21T06:12:36.089Z,3.06
2022-11-21T06:15:38.035Z,2.92
2022-11-21T06:18:44.946Z,3.01
2022-11-21T06:21:46.886Z,3.14
2022-11-21T06:24:48.849Z,3.07
2022-11-21T06:27:50.631Z,3.15
2022-11-21T06:30:52.639Z,3.30
2022-11-21T06:33:55.966Z,3.23
2022-11-21T06:36:57.871Z,3.12
2022-11-21T06:40:00.032Z,3.31
2022-11-21T06:43:02.049Z,3.46
2022-11-21T06:46:04.348Z,3.38
2022-11-21T06:49:07.437Z,3.42
2022-11-21T06:52:09.194Z,3.40
2022-11-21T06:55:12.073Z,3.49
2022-11-21T06:58:13.973Z,3.43
2022-11-21T07:01:15.769Z,3.47
2022-11-21T07:04:17.762Z,3.45
2022-11-21T07:07:19.790Z,3.10
2022-11-21T07:10:21.717Z,3.03
2022-11-21T07:13:23.684Z,3.09
2022-11-21T07:16:26.544Z,3.23
2022-11-21T07:19:28.795Z,3.01
2022-11-21T07:22:31.336Z,3.16
2022-11-21T07:25:36.662Z,3.18
2022-11-21T07:28:40.185Z,3.26
2022-11-21T07:31:42.135Z,3.23
2022-11-21T07:34:44.197Z,3.16
2022-11-21T07:37:46.156Z,3.18
2022-11-21T07:40:48.003Z,3.11
2022-11-21T07:43:49.991Z,3.27
2022-11-21T07:46:56.031Z,3.37
2022-11-21T07:49:57.964Z,3.44
2022-11-21T07:53:00.294Z,3.50
2022-11-21T07:56:02.251Z,3.50
2022-11-21T07:59:04.172Z,3.61
2022-11-21T08:02:06.622Z,3.51
2022-11-21T08:05:08.833Z,3.54
2022-11-21T08:08:14.278Z,3.55
2022-11-21T08:11:16.890Z,3.56
2022-11-21T08:14:18.905Z,3.31
2022-11-21T08:17:20.697Z,3.23
2022-11-21T08:20:22.580Z,3.36
2022-11-21T08:23:24.562Z,3.28
2022-11-21T08:26:26.548Z,3.13
2022-11-21T08:29:28.595Z,3.28
2022-11-21T08:32:30.543Z,3.34
2022-11-21T08:35:32.580Z,3.26
2022-11-21T08:38:34.526Z,3.24
2022-11-21T08:41:55.127Z,3.15
2022-11-21T08:44:57.267Z,2.93
2022-11-21T08:47:59.488Z,2.85
2022-11-21T08:51:01.384Z,2.84
2022-11-21T08:54:03.833Z,2.86
2022-11-21T08:57:05.666Z,2.79
2022-11-21T09:00:09.072Z,2.87
2022-11-21T09:03:11.002Z,2.94
2022-11-21T09:06:13.509Z,2.82
2022-11-21T09:09:17.382Z,2.84
2022-11-21T09:12:22.403Z,2.94
2022-11-21T09:15:42.925Z,3.00
2022-11-21T09:18:44.998Z,2.84
2022-11-21T09:21:49.998Z,2.99
2022-11-21T09:24:52.088Z,3.06
2022-11-21T09:27:54.041Z,3.20
2022-11-21T09:30:56.389Z,3.18
2022-11-21T09:33:58.208Z,3.13
2022-11-21T09:37:00.220Z,3.18
2022-11-21T09:40:02.396Z,3.39
2022-11-21T09:43:26.114Z,3.38
2022-11-21T09:46:31.224Z,3.20
2022-11-21T09:49:41.212Z,3.32
2022-11-21T09:52:55.171Z,3.12
2022-11-21T09:56:00.253Z,3.25
2022-11-21T09:59:17.341Z,3.37
2022-11-21T10:02:23.018Z,3.30
2022-11-21T10:06:06.399Z,3.45
2022-11-21T10:09:36.010Z,3.46
2022-11-21T10:12:50.000Z,3.10
2022-11-21T10:16:09.611Z,3.25
2022-11-21T10:19:55.089Z,3.37
2022-11-21T10:23:22.897Z,3.23
2022-11-21T10:26:43.586Z,3.15
2022-11-21T10:30:16.841Z,3.16
2022-11-21T10:33:27.073Z,3.24
2022-11-21T10:36:34.065Z,3.31
2022-11-21T10:39:44.977Z,3.36
2022-11-21T10:43:00.525Z,3.31
2022-11-21T10:46:02.601Z,3.34
2022-11-21T10:49:05.152Z,3.59
2022-11-21T10:52:16.941Z,3.89
2022-11-21T10:55:26.464Z,3.91
2022-11-21T10:58:45.289Z,3.96
2022-11-21T11:01:55.866Z,4.05
2022-11-21T11:05:16.896Z,4.03
2022-11-21T11:08:19.170Z,4.05
2022-11-21T11:11:22.649Z,4.08
2022-11-21T11:14:32.364Z,3.72
2022-11-21T11:17:34.683Z,3.64
2022-11-21T11:20:36.654Z,3.54
2022-11-21T11:23:38.589Z,3.65
2022-11-21T11:26:49.812Z,3.62
2022-11-21T11:29:53.243Z,3.74
2022-11-21T11:32:55.429Z,3.83
2022-11-21T11:36:26.911Z,3.49
2022-11-21T11:39:50.742Z,3.41
2022-11-21T11:43:23.033Z,3.35
2022-11-21T11:47:11.665Z,3.46
2022-11-21T11:50:18.350Z,3.38
2022-11-21T11:53:22.956Z,3.55
2022-11-21T11:56:34.881Z,3.79
2022-11-21T11:59:43.068Z,3.95
2022-11-21T12:02:53.862Z,3.78
2022-11-21T12:06:09.740Z,4.02
2022-11-21T12:09:35.805Z,4.02
2022-11-21T12:12:55.412Z,4.01
2022-11-21T12:16:07.124Z,4.15
2022-11-21T12:19:21.132Z,4.28
2022-11-21T12:22:23.695Z,4.35
2022-11-21T12:25:36.930Z,4.34
2022-11-21T12:28:43.192Z,4.42
2022-11-21T12:31:56.198Z,4.45
2022-11-21T12:35:19.208Z,4.42
2022-11-21T12:38:44.542Z,4.32
2022-11-21T12:42:16.662Z,4.28
2022-11-21T12:45:32.121Z,4.40
2022-11-21T12:49:21.820Z,4.06
2022-11-21T12:52:59.053Z,4.35
2022-11-21T12:56:09.914Z,4.27
2022-11-21T12:59:13.282Z,4.44
2022-11-21T13:02:32.401Z,4.44
2022-11-21T13:05:41.159Z,4.38
2022-11-21T13:08:44.969Z,4.52
2022-11-21T13:12:01.690Z,4.65
2022-11-21T13:15:27.075Z,4.69
2022-11-21T13:18:33.532Z,4.78
2022-11-21T13:21:50.776Z,4.83
2022-11-21T13:24:56.976Z,4.64
2022-11-21T13:28:14.563Z,4.86
2022-11-21T13:31:32.483Z,4.75
2022-11-21T13:34:39.376Z,4.90
2022-11-21T13:38:03.550Z,4.75
2022-11-21T13:41:25.983Z,4.61
2022-11-21T13:44:32.007Z,4.64
2022-11-21T13:47:52.470Z,4.57
2022-11-21T13:51:26.049Z,4.42
2022-11-21T13:54:59.097Z,4.67
2022-11-21T13:58:31.839Z,4.63
2022-11-21T14:02:08.021Z,4.61
2022-11-21T14:05:37.781Z,4.64
2022-11-21T14:08:41.135Z,4.68
2022-11-21T14:11:52.504Z,4.69
2022-11-21T14:15:00.522Z,4.67
2022-11-21T14:18:02.953Z,4.73
2022-11-21T14:21:05.465Z,4.45
2022-11-21T14:24:19.650Z,4.21
2022-11-21T14:27:29.095Z,4.29
2022-11-21T14:30:32.822Z,4.40
2022-11-21T14:33:42.498Z,4.46
2022-11-21T14:36:45.645Z,4.51
2022-11-21T14:39:55.454Z,4.56
2022-11-21T14:43:00.250Z,4.53
2022-11-21T14:46:02.239Z,4.46
2022-11-21T14:49:16.172Z,4.54
2022-11-21T14:52:21.527Z,4.47
2022-11-21T14:55:33.373Z,4.50
2022-11-21T14:58:36.068Z,4.41
2022-11-21T15:01:39.341Z,4.40
2022-11-21T15:04:48.714Z,4.34
2022-11-21T15:08:10.775Z,4.30
2022-11-21T15:11:18.005Z,4.13
2022-11-21T15:14:29.842Z,4.21
2022-11-21T15:17:32.722Z,4.08
2022-11-21T15:20:35.018Z,4.03
2022-11-21T15:23:40.507Z,3.97
2022-11-21T15:26:42.966Z,4.01
2022-11-21T15:29:45.201Z,4.08
2022-11-21T15:33:07.995Z,4.10
2022-11-21T15:36:14.565Z,3.97
2022-11-21T15:39:24.621Z,3.93
2022-11-21T15:42:46.920Z,4.10
2022-11-21T15:45:49.792Z,4.12
2022-11-21T15:48:53.004Z,4.19
2022-11-21T15:52:11.031Z,4.25
2022-11-21T15:55:21.680Z,4.20
2022-11-21T15:58:24.159Z,4.19
2022-11-21T16:01:30.093Z,4.30
2022-11-21T16:04:32.349Z,4.30
2022-11-21T16:07:35.261Z,4.30
2022-11-21T16:10:37.599Z,4.35
2022-11-21T16:13:43.470Z,4.35
2022-11-21T16:16:47.833Z,4.21
2022-11-21T16:19:50.338Z,4.04
2022-11-21T16:22:52.432Z,4.07
2022-11-21T16:25:55.115Z,3.93
2022-11-21T16:28:58.830Z,4.17
2022-11-21T16:32:01.050Z,4.07
2022-11-21T16:35:03.329Z,4.28
2022-11-21T16:38:11.610Z,4.12
2022-11-21T16:41:13.882Z,4.23
2022-11-21T16:44:16.951Z,4.28
2022-11-21T16:47:18.936Z,4.01
2022-11-21T16:50:23.958Z,3.98
2022-11-21T16:53:26.097Z,3.90
2022-11-21T16:56:29.073Z,3.91
2022-11-21T16:59:34.266Z,3.82
2022-11-21T17:02:38.666Z,3.69
2022-11-21T17:05:41.014Z,3.71
2022-11-21T17:08:47.178Z,3.70
2022-11-21T17:11:49.655Z,3.57
2022-11-21T17:14:52.688Z,3.62
2022-11-21T17:17:57.472Z,3.52
2022-11-21T17:21:03.175Z,3.67
2022-11-21T17:24:06.151Z,3.81
2022-11-21T17:27:12.112Z,3.74
2022-11-21T17:30:16.152Z,3.90
2022-11-21T17:33:19.226Z,3.85
2022-11-21T17:36:27.192Z,3.59
2022-11-21T17:39:30.410Z,3.78
2022-11-21T17:42:33.285Z,3.71
2022-11-21T17:45:36.234Z,3.52
2022-11-21T17:48:40.155Z,3.46
2022-11-21T17:51:42.753Z,3.61
2022-11-21T17:54:44.815Z,3.57
2022-11-21T17:57:47.462Z,3.42
2022-11-21T18:00:55.218Z,3.47
2022-11-21T18:04:02.130Z,3.64
2022-11-21T18:07:04.981Z,3.87
2022-11-21T18:10:35.276Z,3.81
2022-11-21T18:13:32.620Z,3.68
2022-11-21T18:16:36.415Z,3.86
2022-11-21T18:19:40.194Z,4.02
2022-11-21T18:22:46.835Z,4.16
2022-11-21T18:25:50.799Z,3.95
2022-11-21T18:29:28.590Z,3.83
2022-11-21T18:32:24.532Z,3.86
2022-11-21T18:35:28.795Z,3.84
2022-11-21T18:38:48.194Z,4.08
2022-11-21T18:41:51.879Z,4.17
2022-11-21T18:44:54.267Z,4.27
2022-11-21T18:47:56.571Z,4.21
2022-11-21T18:51:11.959Z,4.05
2022-11-21T18:54:14.472Z,4.11
2022-11-21T18:57:16.752Z,4.27
2022-11-21T19:00:19.313Z,4.35
2022-11-21T19:03:22.962Z,4.21
2022-11-21T19:06:26.763Z,4.28
2022-11-21T19:09:32.454Z,4.01
2022-11-21T19:12:39.313Z,3.91
2022-11-21T19:15:43.343Z,3.84
2022-11-21T19:18:59.761Z,3.66
2022-11-21T19:22:08.999Z,3.69
2022-11-21T19:25:11.294Z,3.66
2022-11-21T19:28:13.854Z,3.66
2022-11-21T19:31:18.561Z,3.50
2022-11-21T19:34:21.038Z,3.37
2022-11-21T19:37:23.562Z,3.50
2022-11-21T19:40:25.916Z,3.69
2022-11-21T19:43:30.677Z,3.72
2022-11-21T19:46:35.384Z,3.78
2022-11-21T19:49:37.697Z,3.78
2022-11-21T19:52:39.853Z,3.77
2022-11-21T19:55:42.552Z,3.88
2022-11-21T19:58:45.945Z,3.87
2022-11-21T20:01:52.704Z,3.80
2022-11-21T20:04:55.763Z,3.86
2022-11-21T20:08:03.649Z,3.82
2022-11-21T20:11:11.772Z,3.90
2022-11-21T20:14:21.322Z,3.81
2022-11-21T20:17:24.658Z,3.63
2022-11-21T20:20:30.602Z,3.71
2022-11-21T20:23:33.497Z,3.75
2022-11-21T20:26:36.685Z,3.90
2022-11-21T20:29:39.874Z,4.03
2022-11-21T20:32:42.298Z,3.76
2022-11-21T20:35:44.710Z,3.88
2022-11-21T20:39:07.996Z,3.97
2022-11-21T20:42:17.193Z,4.01
2022-11-21T20:46:07.005Z,3.88
2022-11-21T20:48:48.692Z,4.02
2022-11-21T20:55:14.258Z,3.85
2022-11-21T20:58:17.011Z,3.98
2022-11-21T21:01:21.296Z,4.12
2022-11-21T21:04:23.471Z,3.88
2022-11-21T21:07:25.815Z,4.04
2022-11-21T21:10:33.933Z,3.87
2022-11-21T21:13:50.419Z,3.98
2022-11-21T21:16:52.601Z,4.08
2022-11-21T21:19:54.688Z,4.15
2022-11-21T21:22:57.303Z,4.21
2022-11-21T21:26:08.048Z,4.14
2022-11-21T21:29:18.446Z,4.27
2022-11-21T21:32:20.801Z,4.30
2022-11-21T21:35:23.094Z,4.32
2022-11-21T21:38:25.287Z,4.32
2022-11-21T21:41:28.982Z,4.24
2022-11-21T21:44:33.506Z,4.26
2022-11-21T21:47:35.748Z,4.23
2022-11-21T21:50:38.231Z,4.24
2022-11-21T21:53:40.607Z,4.23
2022-11-21T21:56:42.879Z,4.27
2022-11-21T21:59:44.873Z,4.21
2022-11-21T22:02:46.609Z,4.26
2022-11-21T22:05:49.117Z,4.03
2022-11-21T22:08:51.219Z,4.12
2022-11-21T22:11:54.471Z,4.16
2022-11-21T22:14:56.555Z,4.18
2022-11-21T22:17:58.492Z,4.14
2022-11-21T22:21:01.256Z,4.23
2022-11-21T22:27:27.855Z,4.22
2022-11-21T22:30:29.791Z,4.26
2022-11-21T22:33:32.037Z,4.26
2022-11-21T22:36:34.217Z,4.30
2022-11-21T22:39:36.216Z,4.16
2022-11-21T22:42:38.419Z,4.14
2022-11-21T22:45:40.454Z,4.15
2022-11-21T22:48:42.578Z,4.06
2022-11-21T22:51:44.367Z,4.07
2022-11-21T22:54:46.176Z,3.94
2022-11-21T22:57:48.667Z,3.87
2022-11-21T23:00:50.885Z,3.86
2022-11-21T23:03:53.137Z,3.91
2022-11-21T23:06:55.347Z,3.97
2022-11-21T23:09:58.008Z,3.99
2022-11-21T23:13:00.738Z,3.88
2022-11-21T23:16:03.941Z,3.91
2022-11-21T23:19:05.951Z,4.03
2022-11-21T23:22:08.106Z,4.01
2022-11-21T23:25:09.915Z,3.98
2022-11-21T23:28:11.925Z,4.01
2022-11-21T23:31:13.916Z,3.91
2022-11-21T23:34:15.680Z,3.96
2022-11-21T23:37:17.712Z,3.86
2022-11-21T23:40:20.025Z,3.89
2022-11-21T23:43:22.084Z,3.93
2022-11-21T23:46:23.975Z,3.94
2022-11-21T23:49:25.796Z,3.99
2022-11-21T23:52:27.954Z,3.95
2022-11-21T23:55:29.843Z,3.93
2022-11-21T23:58:31.702Z,4.02
